Henry, South Dakota
Current Conditions -  °F | °C
As of 11:35 PM on Sunday 21 Dec 2014 (Local Time) from KATY Reporting Station
Haze Haze  
Wind Chill: 27°   Ceiling: 200
Heat Index: 36°   Visibility: 4mi
Dew Point: 35°   Wind: 14mph
Humidity: 97%   Direction: 160°SSE
Pressure: 29.47"   Gusts: NA
Location:  44.88°N, 97.47°W
Report Text: KATY 220535Z AUTO 16012KT 4SM BR OVC002 02/02 A2947 RMK AO2 T00220017
Loading
Personal Weather Stations






























Interactive Weather Map New forecast layout! Learn more

10-Day Weather Forecast

Advertisements
Track Severe Weather on mobile